Time;durP1;ratioP1;P1;durP2;ratioP2;P2;SDS_P1;SDS_P2;PMS_P1;PMS_P2;Temp;Humidity;BMP_temperature;BMP_pressure;BME280_temperature;BME280_humidity;BME280_pressure;Samples;Min_cycle;Max_cycle;Signal;HPM_P1;HPM_P2
2021/11/23 00:01:41;;;;;;;21.10;11.88;;;;;;;3.72;94.54;99784.45;4086314;87;21076;-82
2021/11/23 00:07:42;;;;;;;20.80;11.73;;;;;;;3.65;94.38;99786.81;4064656;87;21061;-82
2021/11/23 00:13:44;;;;;;;15.93;10.10;;;;;;;3.56;93.69;99789.46;4060718;87;21965;-82
2021/11/23 00:20:06;;;;;;;23.02;10.95;;;;;;;3.48;93.53;99790.20;4063801;87;21065;-82
2021/11/23 00:26:09;;;;;;;17.70;10.82;;;;;;;3.35;94.09;99784.88;4076054;87;21128;-82
2021/11/23 00:32:11;;;;;;;24.32;11.55;;;;;;;3.23;93.53;99782.70;4074972;87;21050;-82
2021/11/23 00:38:16;;;;;;;21.45;11.83;;;;;;;3.01;94.00;99795.67;4090685;85;21080;-82
2021/11/23 00:44:20;;;;;;;25.52;12.88;;;;;;;2.66;93.52;99805.92;4118505;85;20996;-83
2021/11/23 00:50:22;;;;;;;21.82;12.93;;;;;;;2.32;93.80;99803.44;4123475;85;21387;-81
2021/11/23 00:56:24;;;;;;;28.70;12.80;;;;;;;2.08;93.88;99810.93;4122714;86;21053;-83
2021/11/23 01:02:25;;;;;;;26.37;13.35;;;;;;;1.96;94.07;99823.56;4040842;87;21635;-82
2021/11/23 01:08:28;;;;;;;23.40;13.83;;;;;;;1.98;94.24;99832.72;4029192;87;21059;-82
2021/11/23 01:14:29;;;;;;;22.95;12.45;;;;;;;2.05;94.67;99844.72;4038733;87;21165;-82
2021/11/23 01:20:32;;;;;;;21.73;12.50;;;;;;;2.05;94.13;99835.27;4037665;87;21073;-81
2021/11/23 01:26:33;;;;;;;27.05;14.15;;;;;;;1.87;94.15;99840.20;4041463;87;21113;-82
2021/11/23 01:32:36;;;;;;;26.95;15.80;;;;;;;1.92;95.29;99839.31;4026454;87;21051;-82
2021/11/23 01:38:43;;;;;;;30.32;17.32;;;;;;;2.10;95.05;99833.05;3975640;88;21068;-82
2021/11/23 01:51:42;;;;;;;20.63;11.13;;;;;;;2.32;95.07;99831.23;4055575;86;20185;-82
2021/11/23 01:57:46;;;;;;;31.85;16.12;;;;;;;2.38;94.77;99825.98;4027705;87;21519;-81
2021/11/23 02:10:41;;;;;;;36.73;18.55;;;;;;;2.36;94.35;99823.34;3876846;90;21097;-81
2021/11/23 02:16:42;;;;;;;36.45;18.32;;;;;;;2.36;94.22;99822.80;3897383;89;21125;-83
2021/11/23 02:22:45;;;;;;;40.12;19.82;;;;;;;2.44;94.59;99823.98;4039551;86;21532;-82
2021/11/23 02:28:47;;;;;;;37.67;19.17;;;;;;;2.44;94.36;99818.58;4057003;86;21021;-82
2021/11/23 02:34:49;;;;;;;38.20;18.52;;;;;;;2.49;94.39;99819.84;4056850;86;21079;-81
2021/11/23 02:40:51;;;;;;;37.78;19.27;;;;;;;2.47;93.94;99820.14;4058089;86;21120;-82
2021/11/23 02:46:53;;;;;;;36.63;19.12;;;;;;;2.49;94.30;99818.48;4040123;86;21073;-82
2021/11/23 02:52:55;;;;;;;36.48;20.15;;;;;;;2.52;94.12;99826.77;4053204;86;21014;-82
2021/11/23 02:58:56;;;;;;;35.50;19.52;;;;;;;2.51;94.08;99827.88;4053802;85;21092;-83
2021/11/23 03:04:58;;;;;;;33.70;18.50;;;;;;;2.53;93.81;99839.20;4026535;87;21030;-82
2021/11/23 03:11:01;;;;;;;34.70;19.12;;;;;;;2.54;93.84;99851.59;4025608;87;21061;-83
2021/11/23 03:17:02;;;;;;;35.05;20.08;;;;;;;2.55;94.00;99851.84;4056354;86;21037;-82
2021/11/23 03:23:06;;;;;;;32.42;18.82;;;;;;;2.58;93.80;99855.86;4063224;86;20990;-82
2021/11/23 03:29:08;;;;;;;36.55;18.10;;;;;;;2.55;93.79;99860.52;4059746;86;21776;-82
2021/11/23 03:35:10;;;;;;;42.45;20.57;;;;;;;2.56;93.74;99871.03;4050559;86;21137;-83
2021/11/23 03:41:18;;;;;;;40.63;21.35;;;;;;;2.53;93.35;99862.71;4103260;85;21112;-82
2021/11/23 03:47:21;;;;;;;37.58;19.65;;;;;;;2.49;93.52;99867.91;4121146;85;21556;-82
2021/11/23 03:53:22;;;;;;;36.45;21.12;;;;;;;2.46;92.98;99866.39;4118977;85;21045;-81
2021/11/23 03:59:24;;;;;;;37.25;21.97;;;;;;;2.40;93.36;99859.45;4038852;87;21053;-81
2021/11/23 04:05:26;;;;;;;40.75;21.27;;;;;;;2.44;93.37;99872.63;4033958;87;21583;-82
2021/11/23 04:11:27;;;;;;;38.53;20.90;;;;;;;2.44;93.48;99859.13;4031021;87;22285;-82
2021/11/23 04:17:57;;;;;;;40.23;22.82;;;;;;;2.45;93.35;99862.06;4038262;87;21039;-82
2021/11/23 04:23:59;;;;;;;31.73;18.85;;;;;;;2.42;93.34;99867.53;3981305;88;21044;-82
2021/11/23 04:30:01;;;;;;;30.88;18.50;;;;;;;2.40;92.95;99865.67;3984987;88;21093;-82
2021/11/23 04:36:04;;;;;;;32.28;17.52;;;;;;;2.36;92.77;99871.97;3984747;88;21791;-82
2021/11/23 04:42:07;;;;;;;33.92;19.07;;;;;;;2.35;92.58;99867.11;4039919;87;21161;-82
2021/11/23 04:48:09;;;;;;;30.82;17.05;;;;;;;2.36;92.84;99873.33;4042329;87;21165;-82
2021/11/23 04:54:11;;;;;;;35.25;16.80;;;;;;;2.39;92.86;99859.22;4042706;87;21060;-82
2021/11/23 05:00:17;;;;;;;30.02;15.98;;;;;;;2.35;92.36;99856.87;4040898;87;21153;-82
2021/11/23 05:06:18;;;;;;;28.25;14.50;;;;;;;2.36;92.40;99858.47;4043671;87;21087;-83
2021/11/23 05:12:20;;;;;;;22.60;13.03;;;;;;;2.30;91.93;99860.45;4038418;87;21042;-81
2021/11/23 05:18:23;;;;;;;32.30;17.02;;;;;;;2.27;92.34;99856.22;4030053;87;21084;-81
2021/11/23 05:24:30;;;;;;;38.28;21.50;;;;;;;2.20;92.66;99856.61;4040780;87;21147;-82
2021/11/23 05:30:31;;;;;;;35.00;20.17;;;;;;;2.12;92.30;99858.65;4002948;84;29471;-82
2021/11/23 05:36:33;;;;;;;29.70;18.82;;;;;;;2.17;92.47;99846.95;3991540;88;21053;-82
2021/11/23 05:42:35;;;;;;;34.38;18.07;;;;;;;2.27;92.96;99860.27;3973466;88;21044;-82
2021/11/23 05:48:37;;;;;;;40.00;20.60;;;;;;;2.27;92.51;99852.16;3970487;88;21108;-82
2021/11/23 05:54:39;;;;;;;39.25;21.07;;;;;;;2.24;92.77;99855.47;3968421;88;21095;-84
2021/11/23 06:01:05;;;;;;;49.48;22.93;;;;;;;2.22;92.11;99859.01;3972186;88;21688;-81
2021/11/23 06:07:07;;;;;;;28.23;16.15;;;;;;;2.20;92.12;99861.20;3972301;88;21040;-82
2021/11/23 06:13:10;;;;;;;37.50;21.25;;;;;;;2.17;92.09;99861.80;3971842;88;21171;-82
2021/11/23 06:19:13;;;;;;;28.67;18.05;;;;;;;2.15;92.04;99878.30;3971101;88;21457;-81
2021/11/23 06:25:15;;;;;;;31.73;18.62;;;;;;;2.09;91.74;99888.14;3969926;88;21010;-83
2021/11/23 06:31:16;;;;;;;33.45;18.17;;;;;;;2.05;91.46;99898.73;3970207;88;21110;-82
2021/11/23 06:37:18;;;;;;;34.95;19.57;;;;;;;2.07;91.81;99920.86;3971927;88;21001;-82
2021/11/23 06:43:20;;;;;;;37.67;21.55;;;;;;;2.06;91.65;99918.45;3965303;88;21050;-84
2021/11/23 06:49:21;;;;;;;36.10;21.80;;;;;;;2.06;91.89;99930.06;3972384;88;21111;-83
2021/11/23 06:55:23;;;;;;;38.92;20.48;;;;;;;2.06;91.94;99933.30;3971031;88;21156;-82
2021/11/23 07:01:24;;;;;;;31.12;17.55;;;;;;;2.08;91.99;99937.33;3972130;88;21120;-83
2021/11/23 07:07:30;;;;;;;27.00;15.25;;;;;;;2.11;92.01;99946.73;3971918;88;21569;-82
2021/11/23 07:13:35;;;;;;;24.05;12.28;;;;;;;2.11;91.67;99948.89;3968410;88;21087;-82
2021/11/23 07:19:41;;;;;;;22.62;11.78;;;;;;;2.10;90.97;99945.14;3971274;88;21108;-82
2021/11/23 07:25:42;;;;;;;20.48;12.00;;;;;;;2.13;91.19;99944.55;3971412;87;21586;-83
2021/11/23 07:31:44;;;;;;;25.68;14.93;;;;;;;2.35;91.26;99948.74;3972111;88;21108;-82
2021/11/23 07:37:47;;;;;;;26.02;13.72;;;;;;;2.58;91.05;99943.17;3970869;88;21140;-83
2021/11/23 07:44:05;;;;;;;26.30;14.25;;;;;;;2.58;90.34;99931.55;3981642;86;21994;-82
2021/11/23 07:50:07;;;;;;;28.27;15.68;;;;;;;3.04;91.79;99932.20;4016533;87;21088;-82
2021/11/23 07:56:10;;;;;;;30.97;14.60;;;;;;;3.63;91.17;99935.23;4013768;87;21151;-82
2021/11/23 08:02:12;;;;;;;18.92;9.90;;;;;;;4.17;90.47;99938.48;3995959;87;21102;-83
2021/11/23 08:08:13;;;;;;;16.70;8.90;;;;;;;4.31;89.45;99949.23;4014428;86;21362;-83
2021/11/23 08:14:15;;;;;;;15.20;7.60;;;;;;;4.73;89.40;99960.84;4015928;87;21069;-84
2021/11/23 08:20:16;;;;;;;16.75;8.85;;;;;;;4.97;88.56;99950.41;4011196;87;21041;-84
2021/11/23 08:26:18;;;;;;;14.33;7.83;;;;;;;5.37;87.96;99954.64;4016351;87;21036;-83
2021/11/23 08:32:19;;;;;;;13.15;7.22;;;;;;;5.70;87.42;99963.16;4014666;87;21130;-84
2021/11/23 08:38:21;;;;;;;13.62;8.20;;;;;;;5.52;86.21;99960.98;4016368;87;21174;-81
2021/11/23 08:44:24;;;;;;;18.27;8.85;;;;;;;5.67;86.28;99974.09;3988862;88;21713;-83
2021/11/23 08:50:26;;;;;;;17.02;8.18;;;;;;;5.65;85.41;99975.53;3986749;88;21043;-84
2021/11/23 08:56:40;;;;;;;19.15;8.20;;;;;;;5.64;83.89;99972.55;3988895;88;21040;-84
2021/11/23 09:02:38;;;;;;;24.47;10.40;;;;;;;5.62;83.89;99970.73;3981890;87;21138;-83
2021/11/23 09:08:51;;;;;;;18.00;9.13;;;;;;;5.37;82.61;99976.94;3988092;88;21119;-85
2021/11/23 09:14:57;;;;;;;16.82;9.18;;;;;;;5.83;83.25;99980.68;3983559;87;21113;-84
2021/11/23 09:20:58;;;;;;;17.92;9.45;;;;;;;5.77;82.65;99977.86;3988810;87;21068;-82
2021/11/23 09:27:03;;;;;;;16.65;7.37;;;;;;;5.33;81.41;99980.84;3986273;87;21536;-83
2021/11/23 09:33:06;;;;;;;17.60;8.05;;;;;;;5.01;81.47;99969.58;3987804;88;21085;-82
2021/11/23 09:39:10;;;;;;;16.12;6.15;;;;;;;5.59;82.46;99974.88;3986399;88;21982;-83
2021/11/23 09:45:13;;;;;;;10.23;3.98;;;;;;;6.30;79.00;99957.13;4014896;87;21598;-84
2021/11/23 09:51:26;;;;;;;11.95;5.72;;;;;;;6.86;79.42;99958.71;4009957;87;21642;-85
2021/11/23 09:57:29;;;;;;;9.33;4.33;;;;;;;7.59;80.20;99941.21;4014713;87;21500;-85
2021/11/23 10:03:33;;;;;;;17.73;9.80;;;;;;;7.90;77.53;99930.69;4015656;87;21047;-84
2021/11/23 10:09:42;;;;;;;10.82;4.47;;;;;;;8.16;77.36;99931.00;3997514;87;21057;-84
2021/11/23 10:15:47;;;;;;;12.30;5.70;;;;;;;8.17;74.11;99921.68;4017627;87;21017;-84
2021/11/23 10:21:56;;;;;;;19.82;6.42;;;;;;;8.20;75.01;99906.00;4017526;87;21066;-84
2021/11/23 10:27:57;;;;;;;11.30;4.40;;;;;;;8.23;72.64;99910.81;3993490;87;21049;-82
2021/11/23 10:34:06;;;;;;;20.50;5.95;;;;;;;8.02;73.34;99917.64;4012899;87;21107;-84
2021/11/23 10:40:18;;;;;;;9.10;3.62;;;;;;;8.07;72.44;99922.09;4016091;87;21533;-84
2021/11/23 10:46:22;;;;;;;10.63;4.22;;;;;;;7.86;72.17;99920.78;4003815;87;21032;-83
2021/11/23 10:52:45;;;;;;;11.85;5.22;;;;;;;7.55;71.42;99921.74;4005806;87;21098;-85
2021/11/23 10:58:36;;;;;;;11.30;5.17;;;;;;;7.08;69.51;99912.16;4003115;87;21583;-83
2021/11/23 11:04:41;;;;;;;7.40;3.47;;;;;;;6.75;69.45;99902.47;4006127;87;21063;-83
2021/11/23 11:10:42;;;;;;;7.80;3.85;;;;;;;6.58;69.03;99899.83;4006348;87;21558;-84
2021/11/23 11:16:48;;;;;;;10.63;3.60;;;;;;;6.48;69.51;99897.48;4004513;87;21077;-83
2021/11/23 11:22:52;;;;;;;14.45;3.80;;;;;;;6.32;69.42;99897.23;4005871;87;21075;-83
2021/11/23 11:29:02;;;;;;;11.73;4.17;;;;;;;6.16;68.26;99892.62;4003583;87;21131;-83
2021/11/23 11:35:26;;;;;;;9.88;4.00;;;;;;;5.91;68.47;99889.40;4005293;87;21629;-83
2021/11/23 11:41:39;;;;;;;19.20;4.85;;;;;;;5.98;68.51;99892.44;3996419;87;21567;-84
2021/11/23 11:47:42;;;;;;;11.95;3.65;;;;;;;5.92;67.00;99894.51;3978627;88;21012;-82
2021/11/23 11:53:51;;;;;;;7.05;3.15;;;;;;;5.76;67.98;99883.86;3960421;88;21114;-82
2021/11/23 11:59:53;;;;;;;15.20;4.37;;;;;;;5.69;66.10;99868.62;3979026;87;21042;-82
2021/11/23 12:05:59;;;;;;;7.37;4.53;;;;;;;5.58;66.84;99856.49;3978784;88;22084;-83
2021/11/23 12:12:15;;;;;;;7.80;3.42;;;;;;;5.47;66.40;99847.08;3974654;88;21114;-82
2021/11/23 12:18:38;;;;;;;7.90;4.17;;;;;;;5.62;66.04;99834.92;3975000;88;21086;-82
2021/11/23 12:24:41;;;;;;;11.12;3.58;;;;;;;5.81;66.14;99840.23;3975570;88;21111;-83
2021/11/23 12:30:44;;;;;;;10.30;3.47;;;;;;;5.74;64.93;99841.84;3975157;88;21152;-84
2021/11/23 12:37:07;;;;;;;8.23;2.95;;;;;;;5.67;66.66;99849.70;3976846;88;21011;-83
2021/11/23 12:43:09;;;;;;;8.80;2.92;;;;;;;5.55;66.14;99844.92;3998756;87;21590;-82
2021/11/23 12:49:12;;;;;;;8.50;3.47;;;;;;;5.39;66.01;99834.30;4016170;87;21047;-83
2021/11/23 12:55:18;;;;;;;6.80;3.08;;;;;;;5.18;66.28;99841.50;4016140;87;21593;-83
2021/11/23 13:01:29;;;;;;;7.50;3.42;;;;;;;4.98;66.46;99842.68;4015834;87;21450;-83
2021/11/23 13:07:33;;;;;;;9.53;3.58;;;;;;;4.93;66.66;99827.36;4015439;87;21107;-82
2021/11/23 13:13:39;;;;;;;8.73;3.95;;;;;;;4.92;66.58;99826.31;4008432;87;21579;-83
2021/11/23 13:20:03;;;;;;;9.93;4.30;;;;;;;4.88;66.36;99815.30;4013810;87;21096;-82
2021/11/23 13:26:09;;;;;;;7.37;3.95;;;;;;;4.86;65.76;99822.94;4012637;87;21552;-82
2021/11/23 13:32:11;;;;;;;11.53;4.58;;;;;;;4.85;65.37;99825.42;4016077;87;21091;-82
2021/11/23 13:38:53;;;;;;;10.58;4.40;;;;;;;4.94;65.88;99829.48;4013393;87;21021;-82
2021/11/23 13:44:53;;;;;;;14.60;5.42;;;;;;;5.05;65.60;99831.59;4015200;87;21100;-83
2021/11/23 13:51:08;;;;;;;9.38;4.90;;;;;;;5.15;66.31;99849.48;4016593;85;22831;-82
2021/11/23 13:57:30;;;;;;;15.05;5.92;;;;;;;5.17;66.80;99864.31;4181808;84;21069;-83
2021/11/23 14:03:33;;;;;;;11.53;5.40;;;;;;;5.14;66.17;99856.03;4007643;87;21055;-82
2021/11/23 14:09:54;;;;;;;14.00;5.55;;;;;;;5.09;66.58;99852.11;4016824;87;21136;-82
2021/11/23 14:16:31;;;;;;;13.90;6.25;;;;;;;5.03;66.72;99858.81;4041904;86;21080;-83
2021/11/23 14:22:43;;;;;;;15.13;6.20;;;;;;;5.00;67.14;99853.45;4043593;86;21061;-82
2021/11/23 14:29:04;;;;;;;14.23;6.35;;;;;;;4.98;67.37;99856.25;4020611;87;21108;-82
2021/11/23 14:35:07;;;;;;;11.53;5.83;;;;;;;4.89;67.28;99853.50;4038909;86;21634;-81
2021/11/23 14:41:08;;;;;;;14.13;6.45;;;;;;;4.80;67.50;99856.22;4044644;86;21077;-83
2021/11/23 14:47:10;;;;;;;13.45;6.50;;;;;;;4.76;68.18;99859.30;4043110;86;21037;-82
2021/11/23 14:53:11;;;;;;;13.98;6.85;;;;;;;4.71;68.20;99868.94;4034952;86;21211;-82
2021/11/23 14:59:39;;;;;;;11.43;5.85;;;;;;;4.61;68.70;99854.33;4045624;86;21113;-82
2021/11/23 15:05:42;;;;;;;11.20;5.35;;;;;;;4.50;68.46;99866.58;4047154;86;21647;-81
2021/11/23 15:11:43;;;;;;;13.25;5.80;;;;;;;4.36;69.11;99857.75;4047814;87;21072;-82
2021/11/23 15:17:49;;;;;;;14.47;6.05;;;;;;;4.30;69.58;99859.01;4047918;86;21522;-81
2021/11/23 15:24:25;;;;;;;14.55;6.12;;;;;;;4.23;69.94;99856.48;4097088;85;21020;-82
2021/11/23 15:30:42;;;;;;;15.05;6.20;;;;;;;4.13;69.98;99863.55;4098159;85;21060;-82
2021/11/23 15:43:15;;;;;;;20.75;7.45;;;;;;;4.04;70.81;99879.74;4080268;85;21043;-81
2021/11/23 15:49:17;;;;;;;15.75;6.55;;;;;;;4.06;70.76;99878.08;4088449;85;21683;-82
2021/11/23 15:55:19;;;;;;;16.70;8.63;;;;;;;4.07;70.89;99881.05;4098673;85;21008;-82
2021/11/23 16:01:21;;;;;;;16.62;8.03;;;;;;;4.07;71.02;99889.18;4092891;85;21036;-82
2021/11/23 16:07:24;;;;;;;16.93;7.67;;;;;;;4.06;71.05;99894.33;4091912;84;22014;-83
2021/11/23 16:13:26;;;;;;;19.92;8.70;;;;;;;4.07;71.61;99905.44;4104415;85;21028;-82
2021/11/23 16:19:27;;;;;;;19.05;8.53;;;;;;;4.05;71.75;99907.10;4096338;84;21012;-82
2021/11/23 16:25:28;;;;;;;23.10;9.48;;;;;;;4.05;72.01;99896.81;4094349;85;21075;-82
2021/11/23 16:31:30;;;;;;;15.68;8.15;;;;;;;4.04;72.18;99898.70;4085339;85;21012;-82
2021/11/23 16:37:33;;;;;;;23.92;10.45;;;;;;;4.06;72.20;99895.14;4092600;85;21024;-82
2021/11/23 16:43:34;;;;;;;22.13;10.23;;;;;;;4.06;72.46;99906.52;4089037;85;21594;-83
2021/11/23 16:49:37;;;;;;;25.85;11.15;;;;;;;4.05;72.67;99904.94;4099564;85;21088;-83
2021/11/23 16:55:38;;;;;;;30.97;11.40;;;;;;;4.02;72.89;99906.91;4061170;85;21012;-82
2021/11/23 17:01:47;;;;;;;21.52;10.88;;;;;;;4.02;73.23;99905.02;4100810;85;22280;-84
2021/11/23 17:07:49;;;;;;;25.68;11.53;;;;;;;4.01;73.67;99912.88;4103274;85;22059;-82
2021/11/23 17:13:51;;;;;;;25.43;11.48;;;;;;;4.02;73.80;99915.05;4097871;85;21054;-82
2021/11/23 17:19:52;;;;;;;25.27;11.35;;;;;;;4.05;73.74;99917.94;4096550;85;21562;-82
2021/11/23 17:25:54;;;;;;;24.98;12.58;;;;;;;4.08;74.01;99929.52;4099736;85;21077;-82
2021/11/23 17:31:55;;;;;;;23.55;11.97;;;;;;;4.10;74.12;99936.75;4098669;85;21051;-82
2021/11/23 17:37:58;;;;;;;28.07;11.90;;;;;;;4.10;74.06;99942.75;4102785;85;21066;-82
2021/11/23 17:44:00;;;;;;;23.15;11.48;;;;;;;4.08;74.19;99943.06;4103631;85;21624;-82
2021/11/23 17:50:06;;;;;;;23.80;10.78;;;;;;;4.08;74.59;99942.25;4097911;85;21060;-82
2021/11/23 17:56:08;;;;;;;22.05;11.55;;;;;;;4.12;74.69;99948.67;4097271;85;21045;-81
2021/11/23 18:02:13;;;;;;;26.23;11.63;;;;;;;4.11;74.99;99949.76;4104415;85;21506;-81
2021/11/23 18:08:14;;;;;;;23.10;12.58;;;;;;;4.10;75.19;99955.72;4104875;85;20998;-82
2021/11/23 18:14:16;;;;;;;24.10;11.63;;;;;;;4.10;75.46;99950.30;4095511;85;21093;-83
2021/11/23 18:20:18;;;;;;;22.32;11.78;;;;;;;4.09;76.15;99946.00;4099789;85;21053;-82
2021/11/23 18:26:19;;;;;;;29.20;13.80;;;;;;;4.07;76.16;99942.80;4105309;85;21101;-81
2021/11/23 18:32:21;;;;;;;26.55;12.00;;;;;;;4.08;76.21;99948.48;4099019;85;20986;-82
2021/11/23 18:38:23;;;;;;;30.05;14.45;;;;;;;4.09;76.45;99947.91;4021250;87;21762;-82
2021/11/23 18:44:25;;;;;;;30.37;15.18;;;;;;;4.08;76.48;99948.48;4097222;85;21040;-82
2021/11/23 18:50:26;;;;;;;34.18;16.97;;;;;;;4.11;76.60;99956.53;4087492;85;22024;-81
2021/11/23 18:56:27;;;;;;;30.68;16.02;;;;;;;4.10;76.53;99957.08;4040691;86;21054;-81
2021/11/23 19:02:29;;;;;;;37.63;16.73;;;;;;;4.12;76.99;99958.93;4038793;86;21104;-82
2021/11/23 19:08:30;;;;;;;30.85;14.65;;;;;;;4.12;76.98;99948.67;4054475;86;21110;-81
2021/11/23 19:14:32;;;;;;;36.65;16.07;;;;;;;4.08;77.17;99952.55;4055023;86;21046;-82
2021/11/23 19:20:33;;;;;;;26.87;14.15;;;;;;;4.10;77.26;99959.01;4052315;86;21056;-82
2021/11/23 19:26:34;;;;;;;32.80;15.63;;;;;;;4.10;77.67;99961.14;4059009;86;21045;-82
2021/11/23 19:32:36;;;;;;;35.95;17.32;;;;;;;4.12;77.44;99963.00;4053448;86;21057;-81
2021/11/23 19:38:38;;;;;;;37.25;16.70;;;;;;;4.12;77.42;99960.28;4051956;86;21055;-81
2021/11/23 19:44:39;;;;;;;41.92;19.85;;;;;;;4.14;77.91;99962.69;4051518;85;21562;-82
2021/11/23 19:50:42;;;;;;;37.95;19.27;;;;;;;4.17;77.49;99979.68;4171363;84;21524;-82
2021/11/23 19:56:43;;;;;;;36.10;18.25;;;;;;;4.15;77.37;99976.50;4173498;83;21087;-81
2021/11/23 20:02:46;;;;;;;35.38;18.45;;;;;;;4.13;77.57;99968.69;4169386;84;21032;-82
2021/11/23 20:08:48;;;;;;;37.63;18.65;;;;;;;4.11;77.59;99987.69;4170562;84;21996;-81
2021/11/23 20:14:52;;;;;;;34.25;17.95;;;;;;;4.09;77.73;99985.84;4169503;84;21020;-82
2021/11/23 20:20:57;;;;;;;40.73;18.60;;;;;;;4.08;77.82;99986.95;4172464;84;21053;-81
2021/11/23 20:26:57;;;;;;;45.33;21.23;;;;;;;4.10;78.06;99992.30;4169607;84;21078;-81
2021/11/23 20:33:04;;;;;;;40.08;19.65;;;;;;;4.10;78.10;99992.30;4168598;84;21026;-82
2021/11/23 20:39:06;;;;;;;41.75;19.90;;;;;;;4.12;78.21;99993.37;4169232;82;21043;-82
2021/11/23 20:45:09;;;;;;;39.48;20.12;;;;;;;4.09;78.53;99988.00;4163852;84;21046;-82
2021/11/23 20:51:10;;;;;;;46.63;23.10;;;;;;;4.10;78.68;99990.17;4174579;83;21062;-82
2021/11/23 20:57:11;;;;;;;46.83;23.42;;;;;;;4.06;78.95;99983.75;4179570;83;21003;-82
2021/11/23 21:03:13;;;;;;;40.17;21.50;;;;;;;3.98;79.24;99984.48;4180688;83;21051;-82
2021/11/23 21:09:28;;;;;;;43.05;23.22;;;;;;;3.88;79.59;99980.13;4176467;83;21108;-81
2021/11/23 21:15:29;;;;;;;41.63;23.77;;;;;;;3.77;79.72;99988.80;4174418;83;21122;-82
2021/11/23 21:21:32;;;;;;;43.05;22.27;;;;;;;3.70;80.81;99987.05;4177368;83;21077;-81
2021/11/23 21:27:34;;;;;;;41.33;21.40;;;;;;;3.68;81.25;99990.62;4178154;83;20975;-81
2021/11/23 21:33:35;;;;;;;46.37;28.30;;;;;;;3.69;81.64;99994.39;4180755;83;21274;-81
2021/11/23 21:39:36;;;;;;;46.58;26.48;;;;;;;3.72;82.05;99988.90;4184967;83;21085;-81
2021/11/23 21:46:07;;;;;;;43.08;23.12;;;;;;;3.75;82.45;99999.93;4179735;83;21069;-82
2021/11/23 21:52:07;;;;;;;45.12;23.47;;;;;;;3.77;82.59;99991.50;4175251;83;21067;-81
2021/11/23 21:58:08;;;;;;;42.15;23.07;;;;;;;3.79;82.94;100000.13;4182967;83;21054;-80
2021/11/23 22:04:10;;;;;;;51.05;28.83;;;;;;;3.84;83.26;99989.96;4187633;83;21594;-82
2021/11/23 22:10:13;;;;;;;46.95;26.02;;;;;;;3.87;83.27;99992.63;4171201;83;21054;-81
2021/11/23 22:16:21;;;;;;;43.90;24.57;;;;;;;3.83;83.66;99991.08;4181726;83;21051;-82
2021/11/23 22:22:22;;;;;;;48.58;26.90;;;;;;;3.82;83.86;99992.16;4182488;83;21086;-82
2021/11/23 22:28:24;;;;;;;48.00;26.15;;;;;;;3.82;84.04;99989.46;4181160;83;21054;-82
2021/11/23 22:34:25;;;;;;;49.60;27.13;;;;;;;3.88;84.54;99989.61;4185144;83;21011;-81
2021/11/23 22:40:27;;;;;;;49.88;27.22;;;;;;;3.89;84.81;99985.78;4183287;83;21543;-81
2021/11/23 22:46:28;;;;;;;48.28;28.87;;;;;;;3.91;84.85;99979.52;4176116;83;21039;-81
2021/11/23 22:52:29;;;;;;;48.92;26.97;;;;;;;3.95;85.06;99982.39;4165042;84;21039;-82
2021/11/23 22:58:31;;;;;;;47.13;25.50;;;;;;;3.94;85.40;99976.73;4146117;84;21047;-82
2021/11/23 23:04:33;;;;;;;45.98;26.25;;;;;;;3.96;85.24;99978.02;4161849;84;21492;-81
2021/11/23 23:10:35;;;;;;;47.30;25.95;;;;;;;4.00;85.98;99972.79;4162744;84;21121;-81
2021/11/23 23:16:37;;;;;;;44.20;24.23;;;;;;;3.96;85.73;99968.53;4156394;84;21346;-81
2021/11/23 23:22:38;;;;;;;43.35;24.02;;;;;;;3.99;85.90;99965.78;4165377;83;21034;-82
2021/11/23 23:28:42;;;;;;;46.13;24.40;;;;;;;4.00;85.86;99966.02;4163782;83;21007;-81
2021/11/23 23:34:44;;;;;;;49.35;25.62;;;;;;;3.98;86.10;99961.45;4162227;84;21461;-81
2021/11/23 23:40:45;;;;;;;45.23;24.45;;;;;;;3.99;86.29;99967.14;4160242;84;21310;-81
2021/11/23 23:46:47;;;;;;;50.00;26.17;;;;;;;3.99;86.40;99968.49;4166122;84;21063;-81
2021/11/23 23:52:49;;;;;;;38.13;22.67;;;;;;;4.01;86.54;99967.64;4159943;84;22239;-82
2021/11/23 23:58:50;;;;;;;41.00;23.70;;;;;;;4.01;86.67;99967.64;4163526;84;21011;-81
